Time;durP1;ratioP1;P1;durP2;ratioP2;P2;SDS_P1;SDS_P2;PMS_P1;PMS_P2;Temp;Humidity;BMP_temperature;BMP_pressure;BME280_temperature;BME280_humidity;BME280_pressure;Samples;Min_cycle;Max_cycle;Signal;HPM_P1;HPM_P2
2022/11/22 00:01:17;;;;;;;3.03;2.50;;;;;;;6.78;100.00;98227.19;4985785;28;20191;-73
2022/11/22 00:03:43;;;;;;;3.20;2.80;;;;;;;6.80;100.00;98240.00;4983045;28;20188;-71
2022/11/22 00:06:08;;;;;;;4.70;3.20;;;;;;;6.81;100.00;98226.25;4983819;28;20715;-73
2022/11/22 00:08:33;;;;;;;4.10;3.10;;;;;;;6.82;100.00;98230.53;4981781;28;20204;-72
2022/11/22 00:10:58;;;;;;;3.23;2.67;;;;;;;6.81;100.00;98214.22;4982878;28;20203;-73
2022/11/22 00:13:24;;;;;;;3.83;2.70;;;;;;;6.82;100.00;98222.81;4987491;28;20192;-73
2022/11/22 00:16:02;;;;;;;4.00;2.30;;;;;;;6.84;100.00;98213.31;4981263;28;20192;-72
2022/11/22 00:18:28;;;;;;;3.73;2.73;;;;;;;6.84;100.00;98227.00;4981924;28;20224;-73
2022/11/22 00:20:54;;;;;;;3.67;2.70;;;;;;;6.83;100.00;98220.19;4984375;28;20247;-72
2022/11/22 00:23:20;;;;;;;3.30;2.70;;;;;;;6.84;100.00;98226.19;4984008;28;20198;-71
2022/11/22 00:25:45;;;;;;;3.40;2.60;;;;;;;6.83;100.00;98227.06;4981860;28;20204;-73
2022/11/22 00:28:11;;;;;;;2.60;2.00;;;;;;;6.82;100.00;98225.38;4986013;28;20213;-72
2022/11/22 00:30:36;;;;;;;2.37;2.13;;;;;;;6.83;100.00;98229.63;4981916;28;20188;-72
2022/11/22 00:33:02;;;;;;;3.57;2.70;;;;;;;6.85;100.00;98230.44;4981710;28;20189;-74
2022/11/22 00:35:29;;;;;;;2.53;2.13;;;;;;;6.86;100.00;98237.28;4987440;28;20188;-72
2022/11/22 00:37:54;;;;;;;4.37;2.10;;;;;;;6.89;100.00;98238.91;4982397;28;20213;-73
2022/11/22 00:40:19;;;;;;;2.70;1.93;;;;;;;6.92;100.00;98249.94;4982241;28;20535;-72
2022/11/22 00:42:45;;;;;;;3.30;2.00;;;;;;;6.95;100.00;98254.19;4983095;28;20638;-72
2022/11/22 00:45:10;;;;;;;2.10;1.57;;;;;;;6.97;100.00;98249.81;4982840;28;20201;-73
2022/11/22 00:47:36;;;;;;;2.27;1.67;;;;;;;6.97;100.00;98253.25;4982872;28;20273;-72
2022/11/22 00:50:01;;;;;;;1.80;1.50;;;;;;;7.00;100.00;98258.31;4980897;28;20195;-72
2022/11/22 00:52:27;;;;;;;2.37;1.60;;;;;;;7.01;100.00;98260.00;4982815;28;20192;-72
2022/11/22 00:54:52;;;;;;;3.27;1.43;;;;;;;7.04;100.00;98255.63;4983634;28;20318;-72
2022/11/22 00:57:17;;;;;;;2.23;1.50;;;;;;;7.04;100.00;98264.22;4980805;28;20660;-72
2022/11/22 00:59:43;;;;;;;1.83;1.30;;;;;;;7.06;100.00;98270.16;4985818;28;20204;-73
2022/11/22 01:02:08;;;;;;;1.40;1.10;;;;;;;7.07;100.00;98261.56;4980271;28;20607;-75
2022/11/22 01:04:33;;;;;;;2.13;1.43;;;;;;;7.10;100.00;98276.91;4985983;28;20711;-75
2022/11/22 01:06:58;;;;;;;2.13;1.10;;;;;;;7.12;100.00;98282.84;4982065;28;20238;-72
2022/11/22 01:09:24;;;;;;;1.43;1.13;;;;;;;7.13;100.00;98292.25;4988075;28;20635;-72
2022/11/22 01:11:49;;;;;;;2.53;1.20;;;;;;;7.14;100.00;98295.69;4993081;28;20193;-72
2022/11/22 01:14:15;;;;;;;3.07;1.57;;;;;;;7.17;100.00;98300.75;4983038;28;20189;-73
2022/11/22 01:16:42;;;;;;;2.73;1.13;;;;;;;7.19;100.00;98285.25;4981914;28;20247;-72
2022/11/22 01:19:07;;;;;;;1.23;1.10;;;;;;;7.20;100.00;98295.50;4984800;28;20219;-72
2022/11/22 01:21:32;;;;;;;2.17;1.00;;;;;;;7.20;100.00;98303.22;4985152;28;20265;-72
2022/11/22 01:23:59;;;;;;;2.77;1.33;;;;;;;7.22;100.00;98304.03;4981410;28;20239;-72
2022/11/22 01:26:24;;;;;;;2.50;1.47;;;;;;;7.23;100.00;98310.03;4982184;28;20575;-71
2022/11/22 01:28:50;;;;;;;1.40;1.10;;;;;;;7.23;100.00;98308.28;5010043;28;20220;-73
2022/11/22 01:31:15;;;;;;;2.13;1.40;;;;;;;7.23;100.00;98308.28;5008001;28;20209;-72
2022/11/22 01:33:40;;;;;;;2.47;1.40;;;;;;;7.24;100.00;98306.56;4985370;28;20181;-71
2022/11/22 01:36:06;;;;;;;1.50;1.10;;;;;;;7.24;100.00;98317.69;4993028;28;20270;-71
2022/11/22 01:38:31;;;;;;;2.87;1.10;;;;;;;7.27;100.00;98319.31;4986911;28;20292;-71
2022/11/22 01:40:56;;;;;;;1.10;1.00;;;;;;;7.26;100.00;98321.06;4988311;28;20198;-71
2022/11/22 01:43:25;;;;;;;1.67;1.33;;;;;;;7.27;100.00;98320.19;4988570;28;20196;-73
2022/11/22 01:46:00;;;;;;;1.47;1.37;;;;;;;7.27;100.00;98325.31;4988845;28;20189;-71
2022/11/22 01:49:10;;;;;;;1.50;1.00;;;;;;;7.28;100.00;98323.59;4987935;28;20200;-72
2022/11/22 01:51:39;;;;;;;1.77;1.03;;;;;;;7.27;100.00;98325.31;4983408;28;20611;-72
2022/11/22 01:54:11;;;;;;;2.40;1.30;;;;;;;7.31;100.00;98326.09;4992327;28;20278;-72
2022/11/22 01:56:40;;;;;;;1.50;1.23;;;;;;;7.31;100.00;98332.09;4982813;28;20204;-72
2022/11/22 01:59:11;;;;;;;2.10;1.37;;;;;;;7.33;100.00;98332.03;4988631;28;20336;-72
2022/11/22 02:01:37;;;;;;;1.77;1.30;;;;;;;7.31;100.00;98334.66;4987797;28;20862;-71
2022/11/22 02:04:05;;;;;;;2.83;1.30;;;;;;;7.32;100.00;98343.22;4988770;28;20189;-73
2022/11/22 02:06:40;;;;;;;4.53;1.90;;;;;;;7.35;100.00;98337.13;4988608;28;20284;-73
2022/11/22 02:09:12;;;;;;;1.90;1.20;;;;;;;7.36;100.00;98344.81;4988326;28;20208;-71
2022/11/22 02:11:46;;;;;;;2.67;1.60;;;;;;;7.36;100.00;98338.81;4988179;28;20667;-72
2022/11/22 02:14:12;;;;;;;6.60;1.67;;;;;;;7.34;100.00;98354.31;4983033;28;20281;-72
2022/11/22 02:16:39;;;;;;;2.20;1.30;;;;;;;7.33;100.00;98356.03;4985655;28;20185;-72
2022/11/22 02:19:09;;;;;;;2.30;1.40;;;;;;;7.32;100.00;98356.94;4982638;28;20218;-72
2022/11/22 02:21:34;;;;;;;2.03;1.30;;;;;;;7.35;100.00;98357.72;4986076;28;20189;-72
2022/11/22 02:24:15;;;;;;;2.70;1.60;;;;;;;7.34;100.00;98367.19;4989517;28;20689;-73
2022/11/22 02:26:40;;;;;;;4.20;1.53;;;;;;;7.36;100.00;98365.41;4989483;28;20188;-72
2022/11/22 02:29:06;;;;;;;3.77;1.80;;;;;;;7.35;100.00;98368.00;4986370;28;20834;-72
2022/11/22 02:31:43;;;;;;;5.93;1.63;;;;;;;7.32;100.00;98367.22;4984603;28;20271;-73
2022/11/22 02:34:10;;;;;;;2.50;1.40;;;;;;;7.32;100.00;98369.81;4989485;28;20192;-73
2022/11/22 02:36:40;;;;;;;2.83;1.30;;;;;;;7.32;100.00;98372.38;4989566;28;20192;-72
2022/11/22 02:39:07;;;;;;;4.10;1.50;;;;;;;7.31;100.00;98380.97;4986665;28;21009;-72
2022/11/22 02:41:33;;;;;;;2.63;1.60;;;;;;;7.30;100.00;98381.00;4986399;28;20661;-72
2022/11/22 02:43:58;;;;;;;2.20;1.60;;;;;;;7.27;100.00;98383.66;4986355;28;20218;-71
2022/11/22 02:46:23;;;;;;;2.47;1.43;;;;;;;7.23;100.00;98389.78;4985644;28;20195;-72
2022/11/22 02:48:49;;;;;;;4.17;1.60;;;;;;;7.24;100.00;98384.59;4985401;28;20293;-72
2022/11/22 02:51:18;;;;;;;2.83;1.57;;;;;;;7.22;100.00;98395.81;4992503;28;20181;-73
2022/11/22 02:53:45;;;;;;;4.37;1.93;;;;;;;7.20;100.00;98395.81;4991364;28;20189;-72
2022/11/22 02:56:10;;;;;;;3.73;1.63;;;;;;;7.17;100.00;98394.19;4986265;28;20680;-72
2022/11/22 02:58:35;;;;;;;3.97;1.60;;;;;;;7.16;100.00;98389.94;4985250;28;20219;-73
2022/11/22 03:01:01;;;;;;;3.10;1.70;;;;;;;7.15;100.00;98400.25;4983836;28;20185;-71
2022/11/22 03:03:26;;;;;;;3.43;1.60;;;;;;;7.12;100.00;98400.34;4987687;28;20219;-72
2022/11/22 03:05:51;;;;;;;3.67;1.67;;;;;;;7.09;100.00;98401.28;4983731;28;20264;-72
2022/11/22 03:08:17;;;;;;;4.63;1.97;;;;;;;7.08;100.00;98399.56;4998864;28;20196;-72
2022/11/22 03:10:42;;;;;;;5.47;1.70;;;;;;;7.07;100.00;98404.75;4985709;28;20196;-72
2022/11/22 03:13:07;;;;;;;3.67;1.40;;;;;;;7.01;100.00;98395.47;4979759;28;20199;-72
2022/11/22 03:15:33;;;;;;;4.10;1.50;;;;;;;6.97;100.00;98396.41;4986894;28;20184;-71
2022/11/22 03:17:59;;;;;;;5.50;1.80;;;;;;;6.96;100.00;98403.28;4988374;28;20209;-72
2022/11/22 03:20:25;;;;;;;5.33;1.67;;;;;;;6.96;100.00;98410.16;4987256;28;20197;-72
2022/11/22 03:22:51;;;;;;;3.37;1.63;;;;;;;6.97;100.00;98412.69;4984974;28;20184;-72
2022/11/22 03:25:16;;;;;;;5.20;1.77;;;;;;;6.98;100.00;98405.81;4983776;28;20180;-72
2022/11/22 03:27:41;;;;;;;3.83;1.83;;;;;;;7.01;100.00;98411.75;4984184;28;20212;-72
2022/11/22 03:30:07;;;;;;;2.77;1.50;;;;;;;7.03;100.00;98416.84;4984180;28;20193;-72
2022/11/22 03:32:32;;;;;;;3.57;1.80;;;;;;;7.07;100.00;98421.03;4986010;28;20768;-72
2022/11/22 03:34:58;;;;;;;4.03;1.70;;;;;;;7.09;100.00;98426.13;4976660;28;20189;-71
2022/11/22 03:37:23;;;;;;;4.07;1.63;;;;;;;7.11;100.00;98425.19;4980937;28;20646;-73
2022/11/22 03:39:48;;;;;;;3.87;1.73;;;;;;;7.13;100.00;98427.75;4983334;28;20204;-72
2022/11/22 03:42:13;;;;;;;3.87;1.70;;;;;;;7.12;100.00;98429.47;4986377;28;20679;-72
2022/11/22 03:44:39;;;;;;;5.33;1.83;;;;;;;7.09;100.00;98427.00;4986938;28;20184;-72
2022/11/22 03:47:04;;;;;;;4.07;1.87;;;;;;;7.02;100.00;98430.59;4984806;28;20189;-72
2022/11/22 03:49:29;;;;;;;4.87;1.77;;;;;;;6.95;100.00;98434.19;4986217;28;20207;-73
2022/11/22 03:51:55;;;;;;;6.03;2.20;;;;;;;6.89;100.00;98436.91;4987621;28;20669;-72
2022/11/22 03:54:20;;;;;;;3.90;1.77;;;;;;;6.80;100.00;98437.97;4991538;28;20238;-73
2022/11/22 03:56:45;;;;;;;4.13;1.77;;;;;;;6.78;100.00;98439.72;4989397;28;20238;-73
2022/11/22 03:59:10;;;;;;;5.13;1.83;;;;;;;6.74;100.00;98438.97;4987807;28;20298;-71
2022/11/22 04:01:36;;;;;;;3.07;1.40;;;;;;;6.74;100.00;98446.66;4989256;28;20193;-73
2022/11/22 04:04:01;;;;;;;4.17;1.70;;;;;;;6.74;100.00;98444.09;4982622;28;20225;-73
2022/11/22 04:06:27;;;;;;;2.63;1.50;;;;;;;6.77;100.00;98445.75;4985794;28;20274;-73
2022/11/22 04:08:52;;;;;;;5.37;1.80;;;;;;;6.79;100.00;98446.56;4987764;28;20218;-73
2022/11/22 04:11:17;;;;;;;1.57;1.03;;;;;;;6.81;100.00;98440.50;4979688;28;20758;-72
2022/11/22 04:16:26;;;;;;;5.03;1.50;;;;;;;6.86;100.00;98455.84;4982264;28;20202;-72
2022/11/22 04:18:52;;;;;;;3.80;1.43;;;;;;;6.89;100.00;98455.72;4981151;28;20211;-73
2022/11/22 04:21:35;;;;;;;2.77;1.53;;;;;;;6.94;100.00;98464.19;4985262;28;20581;-72
2022/11/22 04:26:49;;;;;;;3.50;1.60;;;;;;;6.98;100.00;98440.09;4984118;28;20203;-74
2022/11/22 04:29:15;;;;;;;5.57;2.07;;;;;;;6.95;100.00;98444.50;4988436;28;20216;-72
2022/11/22 04:34:25;;;;;;;2.63;1.77;;;;;;;6.76;100.00;98438.91;4983492;28;20267;-72
2022/11/22 04:36:50;;;;;;;2.50;1.50;;;;;;;6.65;100.00;98436.59;4984576;28;20626;-72
2022/11/22 04:39:15;;;;;;;4.20;1.80;;;;;;;6.53;100.00;98437.72;4984847;28;20239;-73
2022/11/22 04:41:41;;;;;;;3.97;1.47;;;;;;;6.48;100.00;98436.97;4984353;28;20181;-72
2022/11/22 04:46:52;;;;;;;3.23;1.40;;;;;;;6.40;100.00;98439.72;4982615;28;20257;-72
2022/11/22 04:49:17;;;;;;;2.87;1.40;;;;;;;6.35;100.00;98434.69;4984427;28;20212;-72
2022/11/22 04:54:26;;;;;;;3.17;1.50;;;;;;;6.18;100.00;98429.03;4983918;28;20320;-73
2022/11/22 04:56:52;;;;;;;3.33;1.30;;;;;;;6.09;100.00;98428.38;4981343;28;20342;-71
2022/11/22 04:59:17;;;;;;;4.80;1.90;;;;;;;6.00;100.00;98428.53;4982102;28;20570;-72
2022/11/22 05:01:42;;;;;;;3.57;1.70;;;;;;;5.92;100.00;98423.53;4982845;28;20660;-73
2022/11/22 05:04:07;;;;;;;3.63;1.60;;;;;;;5.84;100.00;98427.13;4980485;28;20243;-72
2022/11/22 05:06:33;;;;;;;3.97;1.50;;;;;;;5.77;100.00;98436.66;4982751;28;20626;-72
2022/11/22 05:08:58;;;;;;;3.40;1.53;;;;;;;5.70;100.00;98435.94;4985265;28;20222;-72
2022/11/22 05:11:23;;;;;;;2.50;1.27;;;;;;;5.64;100.00;98431.78;4987827;28;20219;-73
2022/11/22 05:13:49;;;;;;;2.70;1.60;;;;;;;5.59;100.00;98430.16;4984320;28;20657;-72
2022/11/22 05:16:15;;;;;;;3.43;1.47;;;;;;;5.53;100.00;98428.56;4986541;28;20221;-73
2022/11/22 05:18:41;;;;;;;3.63;1.83;;;;;;;5.49;100.00;98435.47;4986745;28;20211;-72
2022/11/22 05:21:09;;;;;;;4.97;1.83;;;;;;;5.46;100.00;98430.41;4984444;28;20937;-73
2022/11/22 05:23:54;;;;;;;3.47;1.77;;;;;;;5.44;100.00;98444.97;4989490;28;20200;-71
2022/11/22 05:26:26;;;;;;;1.90;1.60;;;;;;;5.40;100.00;98452.75;4986764;28;20658;-71
2022/11/22 05:28:52;;;;;;;3.67;1.80;;;;;;;5.38;100.00;98450.19;4983875;28;20303;-74
2022/11/22 05:31:23;;;;;;;4.17;2.50;;;;;;;5.39;100.00;98451.88;4991302;28;20249;-72
2022/11/22 05:33:53;;;;;;;3.33;2.03;;;;;;;5.46;100.00;98455.19;4983536;28;20568;-73
2022/11/22 05:36:20;;;;;;;3.50;2.00;;;;;;;5.54;100.00;98463.63;4984846;28;20665;-72
2022/11/22 05:38:46;;;;;;;3.03;1.73;;;;;;;5.64;100.00;98461.72;4982837;28;20260;-73
2022/11/22 05:41:13;;;;;;;3.70;1.80;;;;;;;5.71;100.00;98468.44;4988876;28;20281;-73
2022/11/22 05:43:39;;;;;;;5.90;1.80;;;;;;;5.79;100.00;98473.41;4986383;28;20285;-72
2022/11/22 05:46:16;;;;;;;4.73;1.73;;;;;;;5.89;100.00;98471.53;4987600;28;20286;-72
2022/11/22 05:48:43;;;;;;;4.43;2.07;;;;;;;5.97;100.00;98485.09;4986682;28;20265;-75
2022/11/22 05:51:14;;;;;;;3.53;1.70;;;;;;;6.04;100.00;98481.53;4988227;28;20333;-73
2022/11/22 05:53:41;;;;;;;2.53;1.50;;;;;;;6.11;100.00;98484.84;4986216;28;20271;-72
2022/11/22 05:56:07;;;;;;;2.60;1.80;;;;;;;6.18;100.00;98488.97;4987822;28;20294;-72
2022/11/22 05:58:34;;;;;;;2.70;1.83;;;;;;;6.25;100.00;98492.28;4997273;28;20222;-72
2022/11/22 06:01:10;;;;;;;3.67;1.57;;;;;;;6.30;100.00;98498.13;4987456;28;20727;-73
2022/11/22 06:03:36;;;;;;;3.73;1.77;;;;;;;6.35;100.00;98503.22;4987314;28;20282;-72
2022/11/22 06:06:02;;;;;;;3.40;1.60;;;;;;;6.36;100.00;98502.31;4985088;28;20710;-72
2022/11/22 06:08:29;;;;;;;4.33;1.90;;;;;;;6.38;100.00;98511.69;4981352;28;20221;-70
2022/11/22 06:10:54;;;;;;;3.40;1.90;;;;;;;6.37;100.00;98510.00;4985533;28;20181;-72
2022/11/22 06:13:20;;;;;;;6.33;2.27;;;;;;;6.38;100.00;98511.69;4982410;28;20252;-75
2022/11/22 06:15:45;;;;;;;4.70;2.20;;;;;;;6.39;100.00;98521.09;4983099;28;20624;-71
2022/11/22 06:18:10;;;;;;;4.77;2.43;;;;;;;6.40;100.00;98520.22;4979743;28;20594;-72
2022/11/22 06:20:36;;;;;;;4.13;1.90;;;;;;;6.38;100.00;98516.84;4990352;28;20192;-73
2022/11/22 06:23:01;;;;;;;3.47;1.73;;;;;;;6.39;100.00;98515.97;4985245;28;20250;-73
2022/11/22 06:25:27;;;;;;;3.87;1.90;;;;;;;6.39;100.00;98521.09;4983919;28;20604;-73
2022/11/22 06:27:52;;;;;;;3.70;1.93;;;;;;;6.39;100.00;98520.22;4984495;28;20281;-73
2022/11/22 06:30:18;;;;;;;4.40;2.13;;;;;;;6.40;100.00;98521.94;4988365;28;20208;-72
2022/11/22 06:32:43;;;;;;;4.93;2.00;;;;;;;6.40;100.00;98516.78;4980511;28;20184;-73
2022/11/22 06:35:08;;;;;;;3.37;2.40;;;;;;;6.41;100.00;98533.91;4987177;28;20667;-73
2022/11/22 06:37:34;;;;;;;4.13;2.13;;;;;;;6.39;100.00;98535.66;4989468;28;20224;-72
2022/11/22 06:39:59;;;;;;;7.00;2.47;;;;;;;6.35;100.00;98534.03;4987232;28;20240;-75
2022/11/22 06:42:24;;;;;;;4.47;2.10;;;;;;;6.30;100.00;98533.28;4979042;28;20576;-73
2022/11/22 06:44:50;;;;;;;5.17;2.30;;;;;;;6.26;100.00;98527.38;4984671;28;20663;-73
2022/11/22 06:47:16;;;;;;;7.87;2.30;;;;;;;6.21;100.00;98535.13;4990436;28;20180;-73
2022/11/22 06:49:42;;;;;;;5.47;2.70;;;;;;;6.17;100.00;98535.22;4983398;28;20208;-72
2022/11/22 06:52:07;;;;;;;6.07;2.60;;;;;;;6.12;100.00;98527.63;4983421;28;21695;-73
2022/11/22 06:54:32;;;;;;;5.07;1.90;;;;;;;6.07;100.00;98532.84;4984451;28;20207;-73
2022/11/22 06:56:58;;;;;;;4.87;2.20;;;;;;;6.03;100.00;98536.34;4987764;28;20216;-73
2022/11/22 06:59:23;;;;;;;5.23;2.23;;;;;;;6.01;100.00;98539.81;4985427;28;20212;-73
2022/11/22 07:01:48;;;;;;;4.00;2.10;;;;;;;6.00;100.00;98548.41;4987810;28;20278;-72
2022/11/22 07:04:14;;;;;;;3.87;2.10;;;;;;;5.98;100.00;98543.25;4979549;28;20188;-73
2022/11/22 07:06:39;;;;;;;4.67;2.47;;;;;;;5.97;100.00;98544.16;4983525;28;20198;-73
2022/11/22 07:09:07;;;;;;;5.17;2.17;;;;;;;6.00;100.00;98556.09;4982985;28;20322;-74
2022/11/22 07:11:33;;;;;;;4.83;2.27;;;;;;;6.01;100.00;98550.94;4986135;28;20188;-73
2022/11/22 07:14:01;;;;;;;5.97;2.37;;;;;;;6.05;100.00;98562.84;4985633;28;20186;-72
2022/11/22 07:16:26;;;;;;;4.40;2.40;;;;;;;6.10;100.00;98573.03;4985105;28;20658;-72
2022/11/22 07:18:51;;;;;;;4.23;2.37;;;;;;;6.15;100.00;98576.38;4985600;28;20247;-72
2022/11/22 07:21:23;;;;;;;4.90;2.07;;;;;;;6.19;100.00;98584.84;4987042;28;20975;-72
2022/11/22 07:23:50;;;;;;;3.87;2.13;;;;;;;6.23;100.00;98573.66;4983488;28;20664;-72
2022/11/22 07:26:17;;;;;;;3.90;2.40;;;;;;;6.29;100.00;98577.81;4988102;28;20203;-72
2022/11/22 07:28:44;;;;;;;3.83;2.37;;;;;;;6.33;100.00;98575.16;4986690;28;20210;-73
2022/11/22 07:31:11;;;;;;;4.67;2.50;;;;;;;6.38;100.00;98587.91;4980973;28;20200;-72
2022/11/22 07:33:37;;;;;;;5.43;2.37;;;;;;;6.41;100.00;98598.13;4984058;28;21013;-72
2022/11/22 07:36:06;;;;;;;5.70;2.77;;;;;;;6.44;100.00;98590.38;4986523;28;20274;-75
2022/11/22 07:38:32;;;;;;;4.53;2.27;;;;;;;6.48;100.00;98593.72;4981086;28;20269;-74
2022/11/22 07:40:58;;;;;;;3.57;2.20;;;;;;;6.51;100.00;98597.06;4984436;28;20211;-74
2022/11/22 07:43:23;;;;;;;5.60;2.33;;;;;;;6.53;100.00;98613.31;5000131;28;20172;-74
2022/11/22 07:45:49;;;;;;;5.90;2.90;;;;;;;6.58;100.00;98615.78;5013850;28;20261;-74
2022/11/22 07:48:14;;;;;;;6.23;2.40;;;;;;;6.60;100.00;98620.91;4988914;28;20204;-72
2022/11/22 07:50:40;;;;;;;6.90;2.97;;;;;;;6.64;100.00;98618.25;4996642;28;20235;-73
2022/11/22 07:53:07;;;;;;;6.47;2.77;;;;;;;6.67;100.00;98630.19;4983741;28;20220;-73
2022/11/22 07:55:32;;;;;;;6.67;2.20;;;;;;;6.68;100.00;98630.19;4982377;28;20196;-72
2022/11/22 07:57:59;;;;;;;4.97;2.50;;;;;;;6.70;100.00;98627.56;4983241;28;20695;-72
2022/11/22 08:00:25;;;;;;;5.70;2.33;;;;;;;6.71;100.00;98637.84;4986656;28;20183;-72
2022/11/22 08:02:50;;;;;;;7.10;2.83;;;;;;;6.75;100.00;98646.31;4983207;28;20559;-72
2022/11/22 08:05:16;;;;;;;6.63;2.33;;;;;;;6.77;100.00;98646.28;4983907;28;20476;-71
2022/11/22 08:07:49;;;;;;;5.87;2.60;;;;;;;6.79;100.00;98636.81;4985306;28;20185;-71
2022/11/22 08:10:14;;;;;;;3.77;2.20;;;;;;;6.82;100.00;98641.91;4985079;28;20222;-72
2022/11/22 08:12:40;;;;;;;4.63;2.67;;;;;;;6.85;100.00;98634.13;4984371;28;20210;-72
2022/11/22 08:15:06;;;;;;;5.10;2.37;;;;;;;6.87;100.00;98640.09;4983578;28;20214;-73
2022/11/22 08:17:31;;;;;;;5.30;2.60;;;;;;;6.91;100.00;98641.72;4985874;28;20270;-72
2022/11/22 08:19:57;;;;;;;3.53;2.03;;;;;;;6.94;100.00;98644.22;4987250;28;20836;-72
2022/11/22 08:22:22;;;;;;;4.30;2.27;;;;;;;6.96;100.00;98642.47;4979088;28;21134;-74
2022/11/22 08:24:47;;;;;;;5.10;2.50;;;;;;;6.99;100.00;98633.84;4985241;28;20227;-72
2022/11/22 08:27:13;;;;;;;3.77;2.17;;;;;;;7.05;100.00;98627.72;4985840;28;20189;-72
2022/11/22 08:29:38;;;;;;;7.53;3.00;;;;;;;7.10;100.00;98623.31;4985215;28;20277;-72
2022/11/22 08:32:03;;;;;;;4.00;2.40;;;;;;;7.15;100.00;98635.19;4984858;28;20183;-72
2022/11/22 08:34:29;;;;;;;4.43;2.80;;;;;;;7.20;100.00;98629.94;4988926;28;20180;-72
2022/11/22 08:36:54;;;;;;;3.37;2.60;;;;;;;7.26;100.00;98632.41;4985077;28;20213;-73
2022/11/22 08:39:20;;;;;;;5.27;2.80;;;;;;;7.35;100.00;98635.63;4985624;28;20287;-72
2022/11/22 08:41:46;;;;;;;6.17;2.70;;;;;;;7.41;100.00;98640.66;4985917;28;20275;-72
2022/11/22 08:44:11;;;;;;;6.43;2.53;;;;;;;7.45;100.00;98637.97;4985173;28;20582;-72
2022/11/22 08:46:36;;;;;;;6.53;2.73;;;;;;;7.51;100.00;98636.97;4986908;28;20659;-72
2022/11/22 08:49:05;;;;;;;5.33;2.30;;;;;;;7.59;100.00;98639.38;4986162;28;20756;-72
2022/11/22 08:51:30;;;;;;;5.13;2.60;;;;;;;7.63;100.00;98630.72;4984475;28;20189;-74
2022/11/22 08:53:55;;;;;;;4.47;2.30;;;;;;;7.67;100.00;98623.75;4983375;28;20189;-74
2022/11/22 08:56:21;;;;;;;4.43;2.40;;;;;;;7.73;100.00;98623.63;4985563;28;20188;-74
2022/11/22 08:58:46;;;;;;;5.20;2.57;;;;;;;7.79;100.00;98620.88;4985071;28;20351;-71
2022/11/22 09:01:15;;;;;;;4.57;2.63;;;;;;;7.85;100.00;98622.47;4986629;28;20195;-72
2022/11/22 09:03:41;;;;;;;4.87;2.70;;;;;;;7.92;100.00;98629.16;4985807;28;20581;-71
2022/11/22 09:06:09;;;;;;;3.53;2.20;;;;;;;7.99;100.00;98635.00;4986078;28;20191;-71
2022/11/22 09:08:36;;;;;;;4.20;2.33;;;;;;;8.07;100.00;98626.19;4984110;28;20574;-72
2022/11/22 09:11:04;;;;;;;4.27;2.13;;;;;;;8.16;100.00;98632.84;4985139;28;20235;-72
2022/11/22 09:13:30;;;;;;;6.03;2.60;;;;;;;8.26;100.00;98636.03;4982668;28;20215;-72
2022/11/22 09:16:09;;;;;;;4.20;2.20;;;;;;;8.35;100.00;98627.22;4983168;28;20934;-72
2022/11/22 09:18:36;;;;;;;4.97;2.33;;;;;;;8.41;100.00;98627.03;4978742;28;20226;-72
2022/11/22 09:21:04;;;;;;;6.43;2.60;;;;;;;8.46;100.00;98630.34;4983642;28;20274;-72
2022/11/22 09:23:30;;;;;;;6.27;2.50;;;;;;;8.51;100.00;98632.81;4983061;28;20189;-71
2022/11/22 09:26:08;;;;;;;6.20;2.77;;;;;;;8.56;100.00;98630.13;4984976;28;20322;-72
2022/11/22 09:28:34;;;;;;;4.23;2.30;;;;;;;8.58;100.00;98638.66;4983203;28;20801;-73
2022/11/22 09:31:00;;;;;;;3.80;2.47;;;;;;;8.59;100.00;98630.91;4983576;28;20197;-72
2022/11/22 09:33:26;;;;;;;6.53;2.30;;;;;;;8.61;100.00;98630.84;4982655;28;20281;-73
2022/11/22 09:36:01;;;;;;;4.43;2.00;;;;;;;8.64;100.00;98631.59;4983568;28;20217;-71
2022/11/22 09:38:27;;;;;;;4.67;2.07;;;;;;;8.72;100.00;98633.97;4981611;28;20626;-72
2022/11/22 09:40:53;;;;;;;4.60;2.00;;;;;;;8.77;100.00;98633.84;4982508;28;20760;-73
2022/11/22 09:43:27;;;;;;;4.00;2.10;;;;;;;8.82;100.00;98632.84;4982922;28;20185;-71
2022/11/22 09:46:20;;;;;;;5.43;2.13;;;;;;;8.90;100.00;98631.75;4983292;28;20189;-72
2022/11/22 09:48:54;;;;;;;5.33;2.17;;;;;;;8.97;100.00;98620.38;4981252;28;20205;-72
2022/11/22 09:51:25;;;;;;;4.47;2.30;;;;;;;9.02;100.00;98631.41;4984905;28;20186;-73
2022/11/22 09:53:56;;;;;;;5.40;2.30;;;;;;;9.05;100.00;98636.47;4983480;28;20189;-73
2022/11/22 09:56:24;;;;;;;4.50;1.90;;;;;;;9.09;100.00;98634.63;4983418;28;20199;-73
2022/11/22 09:58:57;;;;;;;3.40;1.70;;;;;;;9.11;100.00;98625.97;4990677;28;20217;-73
2022/11/22 10:01:30;;;;;;;3.73;1.70;;;;;;;9.11;100.00;98633.72;4987991;28;20221;-73
2022/11/22 10:04:02;;;;;;;3.90;1.70;;;;;;;9.10;100.00;98634.63;4983485;28;20214;-72
2022/11/22 10:06:34;;;;;;;3.47;1.70;;;;;;;9.06;100.00;98630.41;4986465;28;20200;-74
2022/11/22 10:08:59;;;;;;;4.60;1.67;;;;;;;9.04;100.00;98624.47;4986809;28;20747;-72
2022/11/22 10:11:39;;;;;;;4.37;1.93;;;;;;;9.03;100.00;98627.94;4987452;28;20189;-72
2022/11/22 10:14:31;;;;;;;4.47;1.67;;;;;;;8.98;100.00;98638.38;4986789;28;20684;-73
2022/11/22 10:17:16;;;;;;;4.30;1.93;;;;;;;8.97;100.00;98641.84;4984239;28;20197;-73
2022/11/22 10:19:49;;;;;;;4.33;1.77;;;;;;;8.98;100.00;98638.38;4984880;28;20256;-73
2022/11/22 10:22:14;;;;;;;3.87;2.20;;;;;;;9.01;100.00;98637.44;4986313;28;20182;-72
2022/11/22 10:24:42;;;;;;;3.73;1.70;;;;;;;9.05;100.00;98628.72;4987022;28;20247;-73
2022/11/22 10:27:14;;;;;;;3.03;1.83;;;;;;;9.08;100.00;98627.78;4987150;28;20716;-72
2022/11/22 10:29:48;;;;;;;4.23;2.03;;;;;;;9.12;100.00;98631.97;4984667;28;20201;-73
2022/11/22 10:32:26;;;;;;;3.33;1.60;;;;;;;9.15;100.00;98624.97;4987165;28;20177;-73
2022/11/22 10:35:05;;;;;;;2.90;1.53;;;;;;;9.23;100.00;98624.75;4984017;28;20692;-72
2022/11/22 10:38:01;;;;;;;5.10;1.87;;;;;;;9.28;100.00;98619.47;4987316;28;20203;-71
2022/11/22 10:40:52;;;;;;;2.70;1.57;;;;;;;9.33;100.00;98629.66;4988739;28;20190;-73
2022/11/22 10:43:38;;;;;;;4.00;1.80;;;;;;;9.39;100.00;98619.97;4982678;28;20213;-73
2022/11/22 10:46:41;;;;;;;6.60;2.27;;;;;;;9.48;100.00;98623.16;4988264;28;20228;-72
2022/11/22 10:49:34;;;;;;;4.40;1.93;;;;;;;9.52;100.00;98627.34;4987441;28;20216;-73
2022/11/22 10:52:17;;;;;;;3.10;1.70;;;;;;;9.58;100.00;98627.16;4985204;28;20197;-73
2022/11/22 10:55:04;;;;;;;3.27;1.40;;;;;;;9.67;100.00;98626.84;4988230;28;20193;-71
2022/11/22 10:57:48;;;;;;;2.83;1.20;;;;;;;9.74;100.00;98630.06;4989738;28;20216;-72
2022/11/22 11:00:20;;;;;;;2.90;1.83;;;;;;;9.81;100.00;98626.41;4987712;28;20193;-73
2022/11/22 11:02:45;;;;;;;5.40;4.13;;;;;;;9.86;100.00;98627.09;4985972;28;20198;-71
2022/11/22 11:05:16;;;;;;;8.03;5.33;;;;;;;9.91;100.00;98630.38;4983975;28;20544;-73
2022/11/22 11:07:47;;;;;;;8.17;7.03;;;;;;;9.92;99.18;98633.78;4983983;28;20197;-72
2022/11/22 11:10:19;;;;;;;7.93;5.73;;;;;;;9.93;98.64;98626.91;4987465;28;20194;-73
2022/11/22 11:12:50;;;;;;;5.00;3.70;;;;;;;9.94;97.61;98633.75;4982873;28;20197;-72
2022/11/22 11:15:40;;;;;;;5.50;2.77;;;;;;;9.97;96.65;98620.75;4984869;28;20615;-72
2022/11/22 11:18:17;;;;;;;3.43;2.03;;;;;;;9.99;95.01;98629.25;4987072;28;20595;-73
2022/11/22 11:20:46;;;;;;;6.20;2.27;;;;;;;9.98;93.23;98612.94;4983479;28;20184;-72
2022/11/22 11:23:12;;;;;;;4.00;2.00;;;;;;;9.97;91.79;98606.06;4985308;28;20204;-72
2022/11/22 11:25:39;;;;;;;3.87;1.67;;;;;;;9.98;91.13;98601.75;4987079;28;20190;-72
2022/11/22 11:28:04;;;;;;;3.50;1.60;;;;;;;9.97;90.13;98595.72;4986593;28;20222;-72
2022/11/22 11:30:46;;;;;;;3.97;1.80;;;;;;;9.97;89.75;98600.06;4985677;28;20181;-71
2022/11/22 11:33:29;;;;;;;5.13;3.70;;;;;;;10.01;89.47;98599.91;4985699;28;20249;-71
2022/11/22 11:36:05;;;;;;;4.03;3.10;;;;;;;10.07;89.47;98598.84;4986272;28;20587;-71
2022/11/22 11:38:32;;;;;;;3.87;2.87;;;;;;;10.11;90.03;98602.16;5001208;28;20221;-74
2022/11/22 11:41:20;;;;;;;3.70;3.00;;;;;;;10.17;89.69;98594.22;4988295;28;20194;-74
2022/11/22 11:43:45;;;;;;;5.03;2.70;;;;;;;10.21;89.30;98591.47;4982613;28;20748;-72
2022/11/22 11:46:16;;;;;;;4.27;1.80;;;;;;;10.31;89.29;98598.88;4986301;28;20189;-72
2022/11/22 11:48:42;;;;;;;5.47;1.77;;;;;;;10.31;88.04;98598.88;4982609;28;20210;-75
2022/11/22 11:51:13;;;;;;;4.63;2.13;;;;;;;10.32;87.98;98591.09;4983114;28;20605;-74
2022/11/22 11:53:41;;;;;;;4.17;1.87;;;;;;;10.36;87.83;98595.25;4985347;28;20189;-72